sensor_id;sensor_type;location;lat;lon;timestamp;P1;durP1;ratioP1;P2;durP2;ratioP2
13230;SDS011;6681;53.254;10.398;2023-07-31T00:00:26;3.10;;;1.53;;
13230;SDS011;6681;53.254;10.398;2023-07-31T00:02:52;3.70;;;1.23;;
13230;SDS011;6681;53.254;10.398;2023-07-31T00:05:18;4.10;;;1.40;;
13230;SDS011;6681;53.254;10.398;2023-07-31T00:07:43;2.60;;;1.53;;
13230;SDS011;6681;53.254;10.398;2023-07-31T00:10:09;1.40;;;1.17;;
13230;SDS011;6681;53.254;10.398;2023-07-31T00:12:35;1.60;;;1.17;;
13230;SDS011;6681;53.254;10.398;2023-07-31T00:15:01;5.50;;;1.00;;
13230;SDS011;6681;53.254;10.398;2023-07-31T00:17:27;1.10;;;0.80;;
13230;SDS011;6681;53.254;10.398;2023-07-31T00:19:53;2.97;;;1.07;;
13230;SDS011;6681;53.254;10.398;2023-07-31T00:22:18;1.60;;;1.50;;
13230;SDS011;6681;53.254;10.398;2023-07-31T00:24:44;4.03;;;1.30;;
13230;SDS011;6681;53.254;10.398;2023-07-31T00:27:09;3.57;;;1.67;;
13230;SDS011;6681;53.254;10.398;2023-07-31T00:29:35;2.00;;;1.13;;
13230;SDS011;6681;53.254;10.398;2023-07-31T00:32:01;5.77;;;1.37;;
13230;SDS011;6681;53.254;10.398;2023-07-31T00:34:26;3.67;;;1.33;;
13230;SDS011;6681;53.254;10.398;2023-07-31T00:36:52;2.33;;;1.57;;
13230;SDS011;6681;53.254;10.398;2023-07-31T00:39:18;3.47;;;2.23;;
13230;SDS011;6681;53.254;10.398;2023-07-31T00:41:43;4.60;;;2.07;;
13230;SDS011;6681;53.254;10.398;2023-07-31T00:44:09;3.10;;;1.37;;
13230;SDS011;6681;53.254;10.398;2023-07-31T00:46:35;4.50;;;1.53;;
13230;SDS011;6681;53.254;10.398;2023-07-31T00:49:00;2.07;;;1.20;;
13230;SDS011;6681;53.254;10.398;2023-07-31T00:51:26;3.97;;;1.63;;
13230;SDS011;6681;53.254;10.398;2023-07-31T00:53:51;5.03;;;2.27;;
13230;SDS011;6681;53.254;10.398;2023-07-31T00:56:19;5.47;;;2.50;;
13230;SDS011;6681;53.254;10.398;2023-07-31T00:58:45;3.63;;;1.70;;
13230;SDS011;6681;53.254;10.398;2023-07-31T01:01:10;4.20;;;1.77;;
13230;SDS011;6681;53.254;10.398;2023-07-31T01:03:36;11.50;;;2.43;;
13230;SDS011;6681;53.254;10.398;2023-07-31T01:09:02;6.10;;;1.80;;
13230;SDS011;6681;53.254;10.398;2023-07-31T01:11:33;6.60;;;1.77;;
13230;SDS011;6681;53.254;10.398;2023-07-31T01:14:03;3.93;;;2.37;;
13230;SDS011;6681;53.254;10.398;2023-07-31T01:16:28;4.93;;;2.83;;
13230;SDS011;6681;53.254;10.398;2023-07-31T01:18:54;5.10;;;2.30;;
13230;SDS011;6681;53.254;10.398;2023-07-31T01:27:06;2.97;;;2.67;;
13230;SDS011;6681;53.254;10.398;2023-07-31T01:29:49;7.80;;;2.47;;
13230;SDS011;6681;53.254;10.398;2023-07-31T01:32:25;5.70;;;2.37;;
13230;SDS011;6681;53.254;10.398;2023-07-31T01:34:54;4.30;;;2.00;;
13230;SDS011;6681;53.254;10.398;2023-07-31T01:37:27;3.60;;;1.53;;
13230;SDS011;6681;53.254;10.398;2023-07-31T01:39:54;6.90;;;1.90;;
13230;SDS011;6681;53.254;10.398;2023-07-31T01:42:20;1.70;;;1.23;;
13230;SDS011;6681;53.254;10.398;2023-07-31T01:44:45;5.80;;;1.80;;
13230;SDS011;6681;53.254;10.398;2023-07-31T01:47:11;5.97;;;1.90;;
13230;SDS011;6681;53.254;10.398;2023-07-31T01:49:37;6.57;;;2.07;;
13230;SDS011;6681;53.254;10.398;2023-07-31T01:52:02;3.93;;;2.27;;
13230;SDS011;6681;53.254;10.398;2023-07-31T01:54:28;7.30;;;1.90;;
13230;SDS011;6681;53.254;10.398;2023-07-31T01:56:54;3.63;;;2.00;;
13230;SDS011;6681;53.254;10.398;2023-07-31T01:59:19;4.60;;;1.80;;
13230;SDS011;6681;53.254;10.398;2023-07-31T02:01:45;4.30;;;2.20;;
13230;SDS011;6681;53.254;10.398;2023-07-31T02:04:10;2.87;;;2.57;;
13230;SDS011;6681;53.254;10.398;2023-07-31T02:06:36;4.90;;;2.07;;
13230;SDS011;6681;53.254;10.398;2023-07-31T02:09:03;5.13;;;1.87;;
13230;SDS011;6681;53.254;10.398;2023-07-31T02:11:28;2.73;;;1.40;;
13230;SDS011;6681;53.254;10.398;2023-07-31T02:13:54;4.40;;;1.77;;
13230;SDS011;6681;53.254;10.398;2023-07-31T02:16:19;2.93;;;1.73;;
13230;SDS011;6681;53.254;10.398;2023-07-31T02:18:45;8.50;;;2.50;;
13230;SDS011;6681;53.254;10.398;2023-07-31T02:21:11;9.33;;;2.33;;
13230;SDS011;6681;53.254;10.398;2023-07-31T02:23:36;5.27;;;2.20;;
13230;SDS011;6681;53.254;10.398;2023-07-31T02:26:02;3.83;;;2.37;;
13230;SDS011;6681;53.254;10.398;2023-07-31T02:28:28;2.23;;;2.00;;
13230;SDS011;6681;53.254;10.398;2023-07-31T02:30:54;4.13;;;2.20;;
13230;SDS011;6681;53.254;10.398;2023-07-31T02:33:20;8.50;;;3.13;;
13230;SDS011;6681;53.254;10.398;2023-07-31T02:35:46;3.80;;;2.37;;
13230;SDS011;6681;53.254;10.398;2023-07-31T02:38:11;3.07;;;2.30;;
13230;SDS011;6681;53.254;10.398;2023-07-31T02:40:37;5.20;;;2.90;;
13230;SDS011;6681;53.254;10.398;2023-07-31T02:43:06;6.37;;;3.63;;
13230;SDS011;6681;53.254;10.398;2023-07-31T02:45:32;4.53;;;3.20;;
13230;SDS011;6681;53.254;10.398;2023-07-31T02:47:57;8.57;;;3.60;;
13230;SDS011;6681;53.254;10.398;2023-07-31T02:50:23;5.00;;;3.37;;
13230;SDS011;6681;53.254;10.398;2023-07-31T02:52:48;4.87;;;3.43;;
13230;SDS011;6681;53.254;10.398;2023-07-31T02:55:14;5.77;;;3.97;;
13230;SDS011;6681;53.254;10.398;2023-07-31T02:57:40;6.97;;;3.60;;
13230;SDS011;6681;53.254;10.398;2023-07-31T03:00:05;4.27;;;3.37;;
13230;SDS011;6681;53.254;10.398;2023-07-31T03:02:32;10.33;;;4.47;;
13230;SDS011;6681;53.254;10.398;2023-07-31T03:04:57;5.43;;;4.40;;
13230;SDS011;6681;53.254;10.398;2023-07-31T03:07:23;5.60;;;5.03;;
13230;SDS011;6681;53.254;10.398;2023-07-31T03:09:49;10.03;;;4.83;;
13230;SDS011;6681;53.254;10.398;2023-07-31T03:12:14;4.40;;;4.00;;
13230;SDS011;6681;53.254;10.398;2023-07-31T03:14:40;6.63;;;4.43;;
13230;SDS011;6681;53.254;10.398;2023-07-31T03:17:05;8.93;;;5.03;;
13230;SDS011;6681;53.254;10.398;2023-07-31T03:19:31;6.37;;;5.27;;
13230;SDS011;6681;53.254;10.398;2023-07-31T03:21:57;12.90;;;5.17;;
13230;SDS011;6681;53.254;10.398;2023-07-31T03:24:23;4.33;;;4.03;;
13230;SDS011;6681;53.254;10.398;2023-07-31T03:26:49;4.87;;;4.57;;
13230;SDS011;6681;53.254;10.398;2023-07-31T03:29:15;7.33;;;6.10;;
13230;SDS011;6681;53.254;10.398;2023-07-31T03:31:41;5.63;;;5.10;;
13230;SDS011;6681;53.254;10.398;2023-07-31T03:34:06;5.27;;;4.33;;
13230;SDS011;6681;53.254;10.398;2023-07-31T03:36:32;5.03;;;4.53;;
13230;SDS011;6681;53.254;10.398;2023-07-31T03:38:58;7.17;;;4.87;;
13230;SDS011;6681;53.254;10.398;2023-07-31T03:41:23;4.00;;;3.70;;
13230;SDS011;6681;53.254;10.398;2023-07-31T03:43:49;4.90;;;4.47;;
13230;SDS011;6681;53.254;10.398;2023-07-31T03:46:21;8.20;;;5.40;;
13230;SDS011;6681;53.254;10.398;2023-07-31T03:48:47;4.80;;;4.30;;
13230;SDS011;6681;53.254;10.398;2023-07-31T03:51:13;5.17;;;4.33;;
13230;SDS011;6681;53.254;10.398;2023-07-31T03:53:39;4.90;;;4.40;;
13230;SDS011;6681;53.254;10.398;2023-07-31T03:56:05;6.63;;;4.30;;
13230;SDS011;6681;53.254;10.398;2023-07-31T03:58:30;3.97;;;3.57;;
13230;SDS011;6681;53.254;10.398;2023-07-31T04:00:56;4.63;;;3.87;;
13230;SDS011;6681;53.254;10.398;2023-07-31T04:03:22;4.20;;;3.80;;
13230;SDS011;6681;53.254;10.398;2023-07-31T04:05:47;9.00;;;3.80;;
13230;SDS011;6681;53.254;10.398;2023-07-31T04:08:13;4.23;;;3.87;;
13230;SDS011;6681;53.254;10.398;2023-07-31T04:10:38;4.00;;;3.70;;
13230;SDS011;6681;53.254;10.398;2023-07-31T04:13:04;5.33;;;4.27;;
13230;SDS011;6681;53.254;10.398;2023-07-31T04:15:30;5.13;;;4.60;;
13230;SDS011;6681;53.254;10.398;2023-07-31T04:17:55;5.97;;;5.00;;
13230;SDS011;6681;53.254;10.398;2023-07-31T04:20:21;4.50;;;4.10;;
13230;SDS011;6681;53.254;10.398;2023-07-31T04:22:48;4.07;;;3.57;;
13230;SDS011;6681;53.254;10.398;2023-07-31T04:25:14;5.30;;;4.80;;
13230;SDS011;6681;53.254;10.398;2023-07-31T04:27:39;4.50;;;4.10;;
13230;SDS011;6681;53.254;10.398;2023-07-31T04:30:05;4.80;;;4.50;;
13230;SDS011;6681;53.254;10.398;2023-07-31T04:32:31;5.57;;;4.60;;
13230;SDS011;6681;53.254;10.398;2023-07-31T04:34:57;4.43;;;4.13;;
13230;SDS011;6681;53.254;10.398;2023-07-31T04:37:22;4.43;;;3.80;;
13230;SDS011;6681;53.254;10.398;2023-07-31T04:39:48;4.33;;;3.93;;
13230;SDS011;6681;53.254;10.398;2023-07-31T04:42:14;4.07;;;3.70;;
13230;SDS011;6681;53.254;10.398;2023-07-31T04:44:39;4.70;;;4.30;;
13230;SDS011;6681;53.254;10.398;2023-07-31T04:47:05;4.97;;;4.47;;
13230;SDS011;6681;53.254;10.398;2023-07-31T04:49:31;4.17;;;3.77;;
13230;SDS011;6681;53.254;10.398;2023-07-31T04:51:57;4.50;;;4.20;;
13230;SDS011;6681;53.254;10.398;2023-07-31T04:54:23;7.63;;;3.83;;
13230;SDS011;6681;53.254;10.398;2023-07-31T04:56:48;3.90;;;3.60;;
13230;SDS011;6681;53.254;10.398;2023-07-31T04:59:14;4.03;;;3.73;;
13230;SDS011;6681;53.254;10.398;2023-07-31T05:01:40;4.83;;;4.43;;
13230;SDS011;6681;53.254;10.398;2023-07-31T05:04:05;4.03;;;3.73;;
13230;SDS011;6681;53.254;10.398;2023-07-31T05:06:31;5.80;;;4.80;;
13230;SDS011;6681;53.254;10.398;2023-07-31T05:08:57;5.60;;;4.30;;
13230;SDS011;6681;53.254;10.398;2023-07-31T05:11:22;4.40;;;3.97;;
13230;SDS011;6681;53.254;10.398;2023-07-31T05:13:48;6.67;;;4.17;;
13230;SDS011;6681;53.254;10.398;2023-07-31T05:16:14;3.60;;;2.90;;
13230;SDS011;6681;53.254;10.398;2023-07-31T05:18:39;4.03;;;3.70;;
13230;SDS011;6681;53.254;10.398;2023-07-31T05:21:05;3.97;;;3.67;;
13230;SDS011;6681;53.254;10.398;2023-07-31T05:23:30;3.07;;;2.87;;
13230;SDS011;6681;53.254;10.398;2023-07-31T05:26:07;4.60;;;3.50;;
13230;SDS011;6681;53.254;10.398;2023-07-31T05:28:35;4.60;;;3.90;;
13230;SDS011;6681;53.254;10.398;2023-07-31T05:31:04;4.57;;;4.20;;
13230;SDS011;6681;53.254;10.398;2023-07-31T05:33:30;3.43;;;3.17;;
13230;SDS011;6681;53.254;10.398;2023-07-31T05:35:56;3.87;;;3.57;;
13230;SDS011;6681;53.254;10.398;2023-07-31T05:38:22;3.93;;;3.53;;
13230;SDS011;6681;53.254;10.398;2023-07-31T05:40:47;4.17;;;3.10;;
13230;SDS011;6681;53.254;10.398;2023-07-31T05:43:13;5.90;;;3.70;;
13230;SDS011;6681;53.254;10.398;2023-07-31T05:45:40;4.27;;;3.30;;
13230;SDS011;6681;53.254;10.398;2023-07-31T05:48:07;4.87;;;4.47;;
13230;SDS011;6681;53.254;10.398;2023-07-31T05:50:32;2.90;;;2.70;;
13230;SDS011;6681;53.254;10.398;2023-07-31T05:52:58;7.80;;;3.73;;
13230;SDS011;6681;53.254;10.398;2023-07-31T05:55:24;3.00;;;2.73;;
13230;SDS011;6681;53.254;10.398;2023-07-31T05:57:52;4.80;;;3.33;;
13230;SDS011;6681;53.254;10.398;2023-07-31T06:00:18;2.97;;;2.77;;
13230;SDS011;6681;53.254;10.398;2023-07-31T06:02:44;2.67;;;2.50;;
13230;SDS011;6681;53.254;10.398;2023-07-31T06:05:09;3.17;;;2.97;;
13230;SDS011;6681;53.254;10.398;2023-07-31T06:07:35;3.30;;;3.03;;
13230;SDS011;6681;53.254;10.398;2023-07-31T06:10:01;3.07;;;2.77;;
13230;SDS011;6681;53.254;10.398;2023-07-31T06:12:30;2.60;;;2.40;;
13230;SDS011;6681;53.254;10.398;2023-07-31T06:14:58;2.70;;;2.50;;
13230;SDS011;6681;53.254;10.398;2023-07-31T06:17:24;3.90;;;2.30;;
13230;SDS011;6681;53.254;10.398;2023-07-31T06:19:51;8.30;;;2.50;;
13230;SDS011;6681;53.254;10.398;2023-07-31T06:22:17;3.63;;;2.47;;
13230;SDS011;6681;53.254;10.398;2023-07-31T06:24:43;4.50;;;2.43;;
13230;SDS011;6681;53.254;10.398;2023-07-31T06:27:08;2.83;;;2.13;;
13230;SDS011;6681;53.254;10.398;2023-07-31T06:29:34;1.83;;;1.73;;
13230;SDS011;6681;53.254;10.398;2023-07-31T06:32:00;2.27;;;1.90;;
13230;SDS011;6681;53.254;10.398;2023-07-31T06:34:26;2.23;;;1.50;;
13230;SDS011;6681;53.254;10.398;2023-07-31T06:36:51;2.10;;;1.90;;
13230;SDS011;6681;53.254;10.398;2023-07-31T06:39:17;1.70;;;1.60;;
13230;SDS011;6681;53.254;10.398;2023-07-31T06:41:43;3.03;;;1.87;;
13230;SDS011;6681;53.254;10.398;2023-07-31T06:44:09;4.30;;;1.60;;
13230;SDS011;6681;53.254;10.398;2023-07-31T06:46:35;1.20;;;1.10;;
13230;SDS011;6681;53.254;10.398;2023-07-31T06:49:01;2.20;;;1.57;;
13230;SDS011;6681;53.254;10.398;2023-07-31T06:51:27;1.60;;;1.50;;
13230;SDS011;6681;53.254;10.398;2023-07-31T06:53:52;1.53;;;1.47;;
13230;SDS011;6681;53.254;10.398;2023-07-31T06:56:18;1.43;;;1.27;;
13230;SDS011;6681;53.254;10.398;2023-07-31T06:58:44;1.90;;;1.03;;
13230;SDS011;6681;53.254;10.398;2023-07-31T07:01:09;1.23;;;1.23;;
13230;SDS011;6681;53.254;10.398;2023-07-31T07:03:35;1.67;;;1.23;;
13230;SDS011;6681;53.254;10.398;2023-07-31T07:06:00;0.90;;;0.90;;
13230;SDS011;6681;53.254;10.398;2023-07-31T07:08:26;1.40;;;0.90;;
13230;SDS011;6681;53.254;10.398;2023-07-31T07:10:52;1.10;;;1.00;;
13230;SDS011;6681;53.254;10.398;2023-07-31T07:13:17;2.00;;;0.63;;
13230;SDS011;6681;53.254;10.398;2023-07-31T07:15:49;1.30;;;1.20;;
13230;SDS011;6681;53.254;10.398;2023-07-31T07:18:15;2.60;;;1.70;;
13230;SDS011;6681;53.254;10.398;2023-07-31T07:20:50;1.73;;;0.80;;
13230;SDS011;6681;53.254;10.398;2023-07-31T07:23:17;1.03;;;1.00;;
13230;SDS011;6681;53.254;10.398;2023-07-31T07:25:45;1.80;;;1.13;;
13230;SDS011;6681;53.254;10.398;2023-07-31T07:28:12;0.70;;;0.70;;
13230;SDS011;6681;53.254;10.398;2023-07-31T07:30:38;1.17;;;1.03;;
13230;SDS011;6681;53.254;10.398;2023-07-31T07:33:04;0.60;;;0.60;;
13230;SDS011;6681;53.254;10.398;2023-07-31T07:35:30;0.87;;;0.87;;
13230;SDS011;6681;53.254;10.398;2023-07-31T07:37:58;0.63;;;0.63;;
13230;SDS011;6681;53.254;10.398;2023-07-31T07:40:23;1.37;;;0.90;;
13230;SDS011;6681;53.254;10.398;2023-07-31T07:42:49;1.23;;;1.13;;
13230;SDS011;6681;53.254;10.398;2023-07-31T07:45:15;2.27;;;1.10;;
13230;SDS011;6681;53.254;10.398;2023-07-31T07:47:41;0.77;;;0.77;;
13230;SDS011;6681;53.254;10.398;2023-07-31T07:50:07;0.73;;;0.73;;
13230;SDS011;6681;53.254;10.398;2023-07-31T07:52:33;0.57;;;0.57;;
13230;SDS011;6681;53.254;10.398;2023-07-31T07:54:59;1.23;;;0.87;;
13230;SDS011;6681;53.254;10.398;2023-07-31T07:57:25;1.00;;;1.00;;
13230;SDS011;6681;53.254;10.398;2023-07-31T07:59:51;0.70;;;0.70;;
13230;SDS011;6681;53.254;10.398;2023-07-31T08:02:17;0.87;;;0.60;;
13230;SDS011;6681;53.254;10.398;2023-07-31T08:04:42;1.47;;;1.33;;
13230;SDS011;6681;53.254;10.398;2023-07-31T08:07:10;0.63;;;0.63;;
13230;SDS011;6681;53.254;10.398;2023-07-31T08:09:37;0.80;;;0.80;;
13230;SDS011;6681;53.254;10.398;2023-07-31T08:12:03;0.47;;;0.43;;
13230;SDS011;6681;53.254;10.398;2023-07-31T08:14:29;0.50;;;0.50;;
13230;SDS011;6681;53.254;10.398;2023-07-31T08:16:55;1.03;;;0.47;;
13230;SDS011;6681;53.254;10.398;2023-07-31T08:19:21;0.40;;;0.40;;
13230;SDS011;6681;53.254;10.398;2023-07-31T08:21:46;0.53;;;0.40;;
13230;SDS011;6681;53.254;10.398;2023-07-31T08:24:12;0.50;;;0.50;;
13230;SDS011;6681;53.254;10.398;2023-07-31T08:26:38;1.17;;;1.17;;
13230;SDS011;6681;53.254;10.398;2023-07-31T08:29:03;0.50;;;0.50;;
13230;SDS011;6681;53.254;10.398;2023-07-31T08:31:29;0.50;;;0.50;;
13230;SDS011;6681;53.254;10.398;2023-07-31T08:33:55;1.40;;;0.40;;
13230;SDS011;6681;53.254;10.398;2023-07-31T08:36:21;0.60;;;0.30;;
13230;SDS011;6681;53.254;10.398;2023-07-31T08:38:47;0.40;;;0.40;;
13230;SDS011;6681;53.254;10.398;2023-07-31T08:41:13;0.13;;;0.13;;
13230;SDS011;6681;53.254;10.398;2023-07-31T08:43:39;0.30;;;0.30;;
13230;SDS011;6681;53.254;10.398;2023-07-31T08:46:05;0.60;;;0.57;;
13230;SDS011;6681;53.254;10.398;2023-07-31T08:48:31;0.30;;;0.30;;
13230;SDS011;6681;53.254;10.398;2023-07-31T08:50:57;0.57;;;0.20;;
13230;SDS011;6681;53.254;10.398;2023-07-31T08:53:23;0.37;;;0.20;;
13230;SDS011;6681;53.254;10.398;2023-07-31T08:55:49;0.37;;;0.30;;
13230;SDS011;6681;53.254;10.398;2023-07-31T08:58:17;0.40;;;0.40;;
13230;SDS011;6681;53.254;10.398;2023-07-31T09:00:44;0.87;;;0.30;;
13230;SDS011;6681;53.254;10.398;2023-07-31T09:03:15;0.17;;;0.17;;
13230;SDS011;6681;53.254;10.398;2023-07-31T09:05:46;0.20;;;0.20;;
13230;SDS011;6681;53.254;10.398;2023-07-31T09:08:12;1.43;;;0.20;;
13230;SDS011;6681;53.254;10.398;2023-07-31T09:10:42;0.10;;;0.10;;
13230;SDS011;6681;53.254;10.398;2023-07-31T09:13:10;0.20;;;0.20;;
13230;SDS011;6681;53.254;10.398;2023-07-31T09:15:37;1.70;;;0.17;;
13230;SDS011;6681;53.254;10.398;2023-07-31T09:18:03;0.17;;;0.17;;
13230;SDS011;6681;53.254;10.398;2023-07-31T09:20:30;0.83;;;0.23;;
13230;SDS011;6681;53.254;10.398;2023-07-31T09:22:57;0.23;;;0.23;;
13230;SDS011;6681;53.254;10.398;2023-07-31T09:25:41;0.97;;;0.30;;
13230;SDS011;6681;53.254;10.398;2023-07-31T09:28:09;0.60;;;0.60;;
13230;SDS011;6681;53.254;10.398;2023-07-31T09:30:49;0.87;;;0.80;;
13230;SDS011;6681;53.254;10.398;2023-07-31T09:33:16;1.47;;;0.80;;
13230;SDS011;6681;53.254;10.398;2023-07-31T09:35:42;1.17;;;0.90;;
13230;SDS011;6681;53.254;10.398;2023-07-31T09:38:12;1.17;;;0.90;;
13230;SDS011;6681;53.254;10.398;2023-07-31T09:40:40;2.30;;;1.73;;
13230;SDS011;6681;53.254;10.398;2023-07-31T09:43:08;2.13;;;1.93;;
13230;SDS011;6681;53.254;10.398;2023-07-31T09:45:36;2.77;;;2.40;;
13230;SDS011;6681;53.254;10.398;2023-07-31T09:48:06;9.63;;;3.20;;
13230;SDS011;6681;53.254;10.398;2023-07-31T09:50:37;4.93;;;2.90;;
13230;SDS011;6681;53.254;10.398;2023-07-31T09:53:04;7.57;;;3.67;;
13230;SDS011;6681;53.254;10.398;2023-07-31T09:55:31;4.77;;;3.57;;
13230;SDS011;6681;53.254;10.398;2023-07-31T09:57:56;9.13;;;4.50;;
13230;SDS011;6681;53.254;10.398;2023-07-31T10:00:23;5.57;;;3.53;;
13230;SDS011;6681;53.254;10.398;2023-07-31T10:02:52;8.03;;;4.23;;
13230;SDS011;6681;53.254;10.398;2023-07-31T10:05:19;5.53;;;4.40;;
13230;SDS011;6681;53.254;10.398;2023-07-31T10:07:50;9.03;;;6.10;;
13230;SDS011;6681;53.254;10.398;2023-07-31T10:10:20;13.73;;;6.03;;
13230;SDS011;6681;53.254;10.398;2023-07-31T10:12:47;8.93;;;4.87;;
13230;SDS011;6681;53.254;10.398;2023-07-31T10:15:17;14.07;;;5.63;;
13230;SDS011;6681;53.254;10.398;2023-07-31T10:17:43;10.63;;;6.27;;
13230;SDS011;6681;53.254;10.398;2023-07-31T10:20:09;7.17;;;6.07;;
13230;SDS011;6681;53.254;10.398;2023-07-31T10:22:35;10.03;;;6.53;;
13230;SDS011;6681;53.254;10.398;2023-07-31T10:25:01;9.27;;;5.67;;
13230;SDS011;6681;53.254;10.398;2023-07-31T10:27:27;9.30;;;6.63;;
13230;SDS011;6681;53.254;10.398;2023-07-31T10:29:54;6.13;;;5.20;;
13230;SDS011;6681;53.254;10.398;2023-07-31T10:32:21;12.77;;;5.63;;
13230;SDS011;6681;53.254;10.398;2023-07-31T10:34:48;13.90;;;7.50;;
13230;SDS011;6681;53.254;10.398;2023-07-31T10:42:31;15.97;;;6.43;;
13230;SDS011;6681;53.254;10.398;2023-07-31T10:45:04;7.77;;;5.83;;
13230;SDS011;6681;53.254;10.398;2023-07-31T10:47:44;12.10;;;5.17;;
13230;SDS011;6681;53.254;10.398;2023-07-31T10:50:12;10.93;;;6.77;;
13230;SDS011;6681;53.254;10.398;2023-07-31T10:52:49;14.43;;;6.87;;
13230;SDS011;6681;53.254;10.398;2023-07-31T10:57:52;7.10;;;4.97;;
13230;SDS011;6681;53.254;10.398;2023-07-31T11:00:20;6.60;;;4.37;;
13230;SDS011;6681;53.254;10.398;2023-07-31T11:03:05;6.37;;;4.60;;
13230;SDS011;6681;53.254;10.398;2023-07-31T11:05:43;7.30;;;4.93;;
13230;SDS011;6681;53.254;10.398;2023-07-31T11:10:50;7.73;;;4.20;;
13230;SDS011;6681;53.254;10.398;2023-07-31T11:16:07;6.33;;;4.17;;
13230;SDS011;6681;53.254;10.398;2023-07-31T11:18:34;6.83;;;3.70;;
13230;SDS011;6681;53.254;10.398;2023-07-31T11:21:00;6.77;;;3.73;;
13230;SDS011;6681;53.254;10.398;2023-07-31T11:23:26;8.00;;;4.77;;
13230;SDS011;6681;53.254;10.398;2023-07-31T11:25:51;4.27;;;3.87;;
13230;SDS011;6681;53.254;10.398;2023-07-31T11:28:17;9.13;;;4.77;;
13230;SDS011;6681;53.254;10.398;2023-07-31T11:30:44;6.17;;;3.83;;
13230;SDS011;6681;53.254;10.398;2023-07-31T11:33:12;6.93;;;4.37;;
13230;SDS011;6681;53.254;10.398;2023-07-31T11:35:42;6.63;;;4.67;;
13230;SDS011;6681;53.254;10.398;2023-07-31T11:38:12;5.73;;;3.60;;
13230;SDS011;6681;53.254;10.398;2023-07-31T11:40:53;6.20;;;3.30;;
13230;SDS011;6681;53.254;10.398;2023-07-31T11:43:21;3.87;;;2.80;;
13230;SDS011;6681;53.254;10.398;2023-07-31T11:45:48;4.13;;;3.03;;
13230;SDS011;6681;53.254;10.398;2023-07-31T11:48:25;5.10;;;2.57;;
13230;SDS011;6681;53.254;10.398;2023-07-31T11:50:55;2.57;;;2.10;;
13230;SDS011;6681;53.254;10.398;2023-07-31T11:55:58;2.63;;;2.17;;
13230;SDS011;6681;53.254;10.398;2023-07-31T11:58:25;4.07;;;3.27;;
13230;SDS011;6681;53.254;10.398;2023-07-31T12:00:51;2.37;;;1.83;;
13230;SDS011;6681;53.254;10.398;2023-07-31T12:03:18;3.67;;;1.67;;
13230;SDS011;6681;53.254;10.398;2023-07-31T12:05:44;1.80;;;1.70;;
13230;SDS011;6681;53.254;10.398;2023-07-31T12:08:12;4.33;;;1.60;;
13230;SDS011;6681;53.254;10.398;2023-07-31T12:10:37;2.43;;;1.47;;
13230;SDS011;6681;53.254;10.398;2023-07-31T12:13:10;3.00;;;2.17;;
13230;SDS011;6681;53.254;10.398;2023-07-31T12:15:40;2.27;;;1.87;;
13230;SDS011;6681;53.254;10.398;2023-07-31T12:18:14;2.47;;;1.83;;
13230;SDS011;6681;53.254;10.398;2023-07-31T12:20:47;2.53;;;2.10;;
13230;SDS011;6681;53.254;10.398;2023-07-31T12:23:18;1.30;;;1.17;;
13230;SDS011;6681;53.254;10.398;2023-07-31T12:31:09;3.23;;;1.80;;
13230;SDS011;6681;53.254;10.398;2023-07-31T12:33:37;1.90;;;1.80;;
13230;SDS011;6681;53.254;10.398;2023-07-31T12:36:10;2.27;;;1.67;;
13230;SDS011;6681;53.254;10.398;2023-07-31T12:38:40;1.57;;;1.13;;
13230;SDS011;6681;53.254;10.398;2023-07-31T12:41:06;2.87;;;1.67;;
13230;SDS011;6681;53.254;10.398;2023-07-31T12:43:32;1.70;;;1.33;;
13230;SDS011;6681;53.254;10.398;2023-07-31T12:46:01;1.53;;;1.43;;
13230;SDS011;6681;53.254;10.398;2023-07-31T12:48:27;1.33;;;1.00;;
13230;SDS011;6681;53.254;10.398;2023-07-31T12:50:53;1.30;;;1.23;;
13230;SDS011;6681;53.254;10.398;2023-07-31T12:53:18;3.23;;;1.40;;
13230;SDS011;6681;53.254;10.398;2023-07-31T12:55:44;2.37;;;1.63;;
13230;SDS011;6681;53.254;10.398;2023-07-31T12:58:10;2.17;;;1.40;;
13230;SDS011;6681;53.254;10.398;2023-07-31T13:00:35;0.90;;;0.90;;
13230;SDS011;6681;53.254;10.398;2023-07-31T13:03:01;1.33;;;1.33;;
13230;SDS011;6681;53.254;10.398;2023-07-31T13:05:28;3.00;;;1.20;;
13230;SDS011;6681;53.254;10.398;2023-07-31T13:07:54;2.17;;;1.97;;
13230;SDS011;6681;53.254;10.398;2023-07-31T13:10:21;1.60;;;1.50;;
13230;SDS011;6681;53.254;10.398;2023-07-31T13:12:51;2.50;;;2.30;;
13230;SDS011;6681;53.254;10.398;2023-07-31T13:15:17;2.43;;;1.47;;
13230;SDS011;6681;53.254;10.398;2023-07-31T13:17:43;2.73;;;1.37;;
13230;SDS011;6681;53.254;10.398;2023-07-31T13:20:09;1.83;;;1.43;;
13230;SDS011;6681;53.254;10.398;2023-07-31T13:22:35;2.80;;;1.63;;
13230;SDS011;6681;53.254;10.398;2023-07-31T13:25:00;1.93;;;1.77;;
13230;SDS011;6681;53.254;10.398;2023-07-31T13:27:26;1.47;;;1.27;;
13230;SDS011;6681;53.254;10.398;2023-07-31T13:29:51;1.93;;;1.50;;
13230;SDS011;6681;53.254;10.398;2023-07-31T13:32:18;1.33;;;1.23;;
13230;SDS011;6681;53.254;10.398;2023-07-31T13:34:46;1.30;;;1.13;;
13230;SDS011;6681;53.254;10.398;2023-07-31T13:37:13;2.03;;;1.93;;
13230;SDS011;6681;53.254;10.398;2023-07-31T13:39:39;3.10;;;1.30;;
13230;SDS011;6681;53.254;10.398;2023-07-31T13:42:05;4.23;;;0.90;;
13230;SDS011;6681;53.254;10.398;2023-07-31T13:44:33;2.03;;;1.00;;
13230;SDS011;6681;53.254;10.398;2023-07-31T13:47:08;0.90;;;0.90;;
13230;SDS011;6681;53.254;10.398;2023-07-31T13:49:35;2.03;;;1.53;;
13230;SDS011;6681;53.254;10.398;2023-07-31T13:52:01;1.03;;;1.03;;
13230;SDS011;6681;53.254;10.398;2023-07-31T13:54:27;1.23;;;0.87;;
13230;SDS011;6681;53.254;10.398;2023-07-31T13:56:53;0.97;;;0.97;;
13230;SDS011;6681;53.254;10.398;2023-07-31T13:59:19;1.10;;;1.10;;
13230;SDS011;6681;53.254;10.398;2023-07-31T14:01:45;1.27;;;1.03;;
13230;SDS011;6681;53.254;10.398;2023-07-31T14:04:11;1.20;;;1.10;;
13230;SDS011;6681;53.254;10.398;2023-07-31T14:06:37;1.30;;;1.20;;
13230;SDS011;6681;53.254;10.398;2023-07-31T14:09:02;1.33;;;1.07;;
13230;SDS011;6681;53.254;10.398;2023-07-31T14:11:30;1.23;;;1.23;;
13230;SDS011;6681;53.254;10.398;2023-07-31T14:13:56;1.07;;;1.07;;
13230;SDS011;6681;53.254;10.398;2023-07-31T14:16:22;0.77;;;0.77;;
13230;SDS011;6681;53.254;10.398;2023-07-31T14:18:48;1.10;;;1.00;;
13230;SDS011;6681;53.254;10.398;2023-07-31T14:21:13;0.90;;;0.87;;
13230;SDS011;6681;53.254;10.398;2023-07-31T14:23:39;1.33;;;1.23;;
13230;SDS011;6681;53.254;10.398;2023-07-31T14:26:05;1.60;;;1.50;;
13230;SDS011;6681;53.254;10.398;2023-07-31T14:28:31;1.03;;;1.03;;
13230;SDS011;6681;53.254;10.398;2023-07-31T14:30:57;1.67;;;1.57;;
13230;SDS011;6681;53.254;10.398;2023-07-31T14:33:23;2.00;;;1.40;;
13230;SDS011;6681;53.254;10.398;2023-07-31T14:35:49;1.20;;;1.10;;
13230;SDS011;6681;53.254;10.398;2023-07-31T14:38:14;2.87;;;1.40;;
13230;SDS011;6681;53.254;10.398;2023-07-31T14:40:40;1.50;;;1.40;;
13230;SDS011;6681;53.254;10.398;2023-07-31T14:43:06;1.70;;;1.60;;
13230;SDS011;6681;53.254;10.398;2023-07-31T14:45:32;2.03;;;1.93;;
13230;SDS011;6681;53.254;10.398;2023-07-31T14:47:58;3.03;;;2.20;;
13230;SDS011;6681;53.254;10.398;2023-07-31T14:50:23;2.93;;;2.43;;
13230;SDS011;6681;53.254;10.398;2023-07-31T14:52:50;2.43;;;2.00;;
13230;SDS011;6681;53.254;10.398;2023-07-31T14:55:16;1.97;;;1.87;;
13230;SDS011;6681;53.254;10.398;2023-07-31T14:57:42;2.13;;;2.03;;
13230;SDS011;6681;53.254;10.398;2023-07-31T15:00:08;1.83;;;1.73;;
13230;SDS011;6681;53.254;10.398;2023-07-31T15:02:35;2.70;;;2.50;;
13230;SDS011;6681;53.254;10.398;2023-07-31T15:05:01;2.60;;;2.07;;
13230;SDS011;6681;53.254;10.398;2023-07-31T15:07:27;2.67;;;2.47;;
13230;SDS011;6681;53.254;10.398;2023-07-31T15:09:53;3.00;;;2.80;;
13230;SDS011;6681;53.254;10.398;2023-07-31T15:12:19;2.43;;;2.23;;
13230;SDS011;6681;53.254;10.398;2023-07-31T15:14:44;3.17;;;2.80;;